createdAt,value
2023-01-17T00:08:21.405Z,3.90
2023-01-17T00:28:41.133Z,3.80
2023-01-17T01:14:23.774Z,4.00
2023-01-17T01:35:03.554Z,4.10
2023-01-17T01:39:25.573Z,4.10
2023-01-17T02:04:49.068Z,4.20
2023-01-17T02:40:24.665Z,4.30
2023-01-17T03:05:45.854Z,4.30
2023-01-17T03:46:41.106Z,4.10
2023-01-17T04:07:12.575Z,4.20
2023-01-17T04:27:14.336Z,4.10
2023-01-17T04:47:46.897Z,4.10
2023-01-17T05:18:12.489Z,4.00
2023-01-17T05:37:57.829Z,3.90
2023-01-17T05:58:25.919Z,3.80
2023-01-17T06:44:14.349Z,3.40
2023-01-17T07:04:23.129Z,3.00
2023-01-17T07:29:54.850Z,2.90
2023-01-17T08:35:25.499Z,4.00
2023-01-17T08:56:03.318Z,4.20
2023-01-17T09:16:32.622Z,4.50
2023-01-17T09:46:26.875Z,5.10
2023-01-17T10:12:03.603Z,5.40
2023-01-17T10:57:52.493Z,5.60
2023-01-17T11:18:20.637Z,5.70
2023-01-17T11:58:44.347Z,5.60
2023-01-17T12:33:40.832Z,5.50
2023-01-17T13:35:14.472Z,5.40
2023-01-17T14:10:44.216Z,4.80
2023-01-17T14:40:34.019Z,3.90
2023-01-17T15:01:22.201Z,2.90
2023-01-17T15:26:12.554Z,2.60
2023-01-17T15:46:44.267Z,1.90
2023-01-17T16:07:21.761Z,1.30
2023-01-17T16:42:38.421Z,1.40
2023-01-17T17:17:57.126Z,1.20
2023-01-17T17:53:12.246Z,0.20
2023-01-17T18:23:43.520Z,-0.60
2023-01-17T18:54:07.512Z,-0.70
2023-01-17T19:14:49.563Z,-0.70
2023-01-17T19:30:02.785Z,-0.60
2023-01-17T20:05:40.930Z,-1.00
2023-01-17T20:10:00.450Z,-1.00
2023-01-17T20:30:53.048Z,-0.90
2023-01-17T21:01:21.373Z,-0.90
2023-01-17T21:56:41.016Z,-0.90
2023-01-17T22:32:34.092Z,-0.40
2023-01-17T23:02:59.480Z,-0.40
2023-01-17T23:32:55.228Z,0.00
2023-01-17T23:53:16.876Z,0.10
